Scio, Michigan
Current Conditions -  °F | °C
As of 5:35 AM on Saturday 25 Oct 2014 (Local Time) from KARB Reporting Station
Moderate Fog Moderate Fog  
Wind Chill: 41°   Ceiling: 8500
Heat Index: 41°   Visibility: 0.5mi
Dew Point: 39°   Wind: 3mph
Humidity: 93%   Direction: 230°SW
Pressure: 29.87"   Gusts: NA
Location:  42.3528°N, 83.8974°W
Report Text: KARB 250935Z AUTO 23003KT 1/2SM FG SCT001 OVC085 05/04 A2987 RMK AO2 T00500039
Loading
Personal Weather Stations






























Interactive Weather Map
Tropical Storm Tracking
New forecast layout! Learn more

10-Day Weather Forecast

Advertisements
Track Severe Weather on mobile